sensor_id;sensor_type;location;lat;lon;timestamp;pressure;altitude;pressure_sealevel;temperature;humidity
38530;BME280;24301;54.332;48.386;2022-07-23T00:00:03;98524.47;;;19.56;73.51
38530;BME280;24301;54.332;48.386;2022-07-23T00:02:32;98517.34;;;19.56;72.50
38530;BME280;24301;54.332;48.386;2022-07-23T00:04:57;98527.13;;;19.56;71.97
38530;BME280;24301;54.332;48.386;2022-07-23T00:07:23;98518.31;;;19.55;71.39
38530;BME280;24301;54.332;48.386;2022-07-23T00:09:49;98519.06;;;19.57;69.93
38530;BME280;24301;54.332;48.386;2022-07-23T00:12:15;98511.00;;;19.59;70.10
38530;BME280;24301;54.332;48.386;2022-07-23T00:14:41;98519.00;;;19.59;70.44
38530;BME280;24301;54.332;48.386;2022-07-23T00:17:07;98526.31;;;19.55;69.62
38530;BME280;24301;54.332;48.386;2022-07-23T00:19:33;98521.81;;;19.56;69.15
38530;BME280;24301;54.332;48.386;2022-07-23T00:21:59;98525.34;;;19.56;69.37
38530;BME280;24301;54.332;48.386;2022-07-23T00:24:24;98524.41;;;19.57;68.21
38530;BME280;24301;54.332;48.386;2022-07-23T00:26:50;98532.31;;;19.59;67.71
38530;BME280;24301;54.332;48.386;2022-07-23T00:29:16;98533.84;;;19.63;67.78
38530;BME280;24301;54.332;48.386;2022-07-23T00:31:43;98534.03;;;19.60;67.89
38530;BME280;24301;54.332;48.386;2022-07-23T00:34:09;98529.66;;;19.59;68.16
38530;BME280;24301;54.332;48.386;2022-07-23T00:36:35;98537.66;;;19.59;68.63
38530;BME280;24301;54.332;48.386;2022-07-23T00:39:01;98535.06;;;19.57;68.91
38530;BME280;24301;54.332;48.386;2022-07-23T00:41:27;98531.19;;;19.63;69.39
38530;BME280;24301;54.332;48.386;2022-07-23T00:43:53;98542.50;;;19.66;70.05
38530;BME280;24301;54.332;48.386;2022-07-23T00:46:22;98535.38;;;19.67;71.64
38530;BME280;24301;54.332;48.386;2022-07-23T00:48:48;98534.16;;;19.73;72.02
38530;BME280;24301;54.332;48.386;2022-07-23T00:51:15;98542.81;;;19.76;73.92
38530;BME280;24301;54.332;48.386;2022-07-23T00:53:42;98542.63;;;19.79;74.40
38530;BME280;24301;54.332;48.386;2022-07-23T00:56:10;98540.56;;;19.85;74.99
38530;BME280;24301;54.332;48.386;2022-07-23T00:58:36;98544.44;;;19.95;75.17
38530;BME280;24301;54.332;48.386;2022-07-23T01:01:04;98548.53;;;20.01;75.12
38530;BME280;24301;54.332;48.386;2022-07-23T01:03:30;98542.34;;;20.00;75.87
38530;BME280;24301;54.332;48.386;2022-07-23T01:05:56;98548.72;;;19.98;76.54
38530;BME280;24301;54.332;48.386;2022-07-23T01:08:23;98547.84;;;19.97;77.25
38530;BME280;24301;54.332;48.386;2022-07-23T01:10:50;98551.47;;;19.96;78.03
38530;BME280;24301;54.332;48.386;2022-07-23T01:13:16;98554.31;;;19.93;78.65
38530;BME280;24301;54.332;48.386;2022-07-23T01:15:43;98553.91;;;19.85;78.88
38530;BME280;24301;54.332;48.386;2022-07-23T01:18:09;98552.94;;;19.86;78.81
38530;BME280;24301;54.332;48.386;2022-07-23T01:20:37;98566.44;;;19.99;78.67
38530;BME280;24301;54.332;48.386;2022-07-23T01:23:04;98572.28;;;20.20;78.54
38530;BME280;24301;54.332;48.386;2022-07-23T01:25:30;98561.81;;;20.46;77.40
38530;BME280;24301;54.332;48.386;2022-07-23T01:27:59;98560.47;;;20.67;76.70
38530;BME280;24301;54.332;48.386;2022-07-23T01:30:25;98554.19;;;20.83;75.64
38530;BME280;24301;54.332;48.386;2022-07-23T01:32:51;98548.75;;;20.99;74.67
38530;BME280;24301;54.332;48.386;2022-07-23T01:35:18;98544.44;;;21.11;73.99
38530;BME280;24301;54.332;48.386;2022-07-23T01:37:44;98544.28;;;21.27;73.74
38530;BME280;24301;54.332;48.386;2022-07-23T01:40:10;98556.53;;;21.44;73.13
38530;BME280;24301;54.332;48.386;2022-07-23T01:42:36;98543.50;;;21.52;72.25
38530;BME280;24301;54.332;48.386;2022-07-23T01:45:04;98550.25;;;21.58;72.11
38530;BME280;24301;54.332;48.386;2022-07-23T01:47:31;98546.09;;;21.54;71.13
38530;BME280;24301;54.332;48.386;2022-07-23T01:49:57;98548.69;;;21.68;70.67
38530;BME280;24301;54.332;48.386;2022-07-23T01:52:44;98553.69;;;22.01;69.75
38530;BME280;24301;54.332;48.386;2022-07-23T01:55:10;98552.63;;;22.29;69.31
38530;BME280;24301;54.332;48.386;2022-07-23T01:57:40;98551.16;;;22.51;68.02
38530;BME280;24301;54.332;48.386;2022-07-23T02:00:06;98554.78;;;22.63;67.21
38530;BME280;24301;54.332;48.386;2022-07-23T02:02:39;98559.66;;;22.82;67.06
38530;BME280;24301;54.332;48.386;2022-07-23T02:05:05;98567.44;;;22.98;66.21
38530;BME280;24301;54.332;48.386;2022-07-23T02:07:31;98549.34;;;23.02;65.88
38530;BME280;24301;54.332;48.386;2022-07-23T02:10:01;98557.25;;;23.16;65.21
38530;BME280;24301;54.332;48.386;2022-07-23T02:12:28;98551.41;;;23.22;64.66
38530;BME280;24301;54.332;48.386;2022-07-23T02:15:14;98561.25;;;23.35;63.57
38530;BME280;24301;54.332;48.386;2022-07-23T02:17:40;98554.84;;;23.49;63.12
38530;BME280;24301;54.332;48.386;2022-07-23T02:20:07;98563.16;;;23.81;62.77
38530;BME280;24301;54.332;48.386;2022-07-23T02:22:33;98557.41;;;24.10;61.85
38530;BME280;24301;54.332;48.386;2022-07-23T02:24:59;98561.94;;;24.10;61.04
38530;BME280;24301;54.332;48.386;2022-07-23T02:27:25;98565.00;;;24.17;60.93
38530;BME280;24301;54.332;48.386;2022-07-23T02:29:52;98559.41;;;24.20;60.85
38530;BME280;24301;54.332;48.386;2022-07-23T02:32:18;98547.72;;;24.44;60.60
38530;BME280;24301;54.332;48.386;2022-07-23T02:34:44;98553.22;;;24.53;60.06
38530;BME280;24301;54.332;48.386;2022-07-23T02:37:10;98554.06;;;24.88;59.76
38530;BME280;24301;54.332;48.386;2022-07-23T02:39:36;98551.97;;;25.15;58.62
38530;BME280;24301;54.332;48.386;2022-07-23T02:42:02;98552.22;;;25.11;58.71
38530;BME280;24301;54.332;48.386;2022-07-23T02:44:30;98565.25;;;25.28;58.21
38530;BME280;24301;54.332;48.386;2022-07-23T02:46:56;98552.53;;;25.30;58.06
38530;BME280;24301;54.332;48.386;2022-07-23T02:49:22;98548.69;;;25.55;58.05
38530;BME280;24301;54.332;48.386;2022-07-23T02:51:49;98551.22;;;25.89;57.19
38530;BME280;24301;54.332;48.386;2022-07-23T02:54:15;98548.22;;;26.04;56.59
38530;BME280;24301;54.332;48.386;2022-07-23T02:56:41;98549.50;;;26.09;56.11
38530;BME280;24301;54.332;48.386;2022-07-23T02:59:07;98547.19;;;26.16;55.95
38530;BME280;24301;54.332;48.386;2022-07-23T03:01:34;98542.69;;;26.05;56.31
38530;BME280;24301;54.332;48.386;2022-07-23T03:04:00;98540.88;;;26.27;55.64
38530;BME280;24301;54.332;48.386;2022-07-23T03:06:26;98545.31;;;26.38;54.95
38530;BME280;24301;54.332;48.386;2022-07-23T03:08:52;98550.09;;;26.34;55.21
38530;BME280;24301;54.332;48.386;2022-07-23T03:11:18;98537.72;;;26.53;54.63
38530;BME280;24301;54.332;48.386;2022-07-23T03:13:45;98530.28;;;26.66;54.43
38530;BME280;24301;54.332;48.386;2022-07-23T03:16:11;98532.00;;;26.67;53.95
38530;BME280;24301;54.332;48.386;2022-07-23T03:18:37;98536.38;;;26.68;53.85
38530;BME280;24301;54.332;48.386;2022-07-23T03:21:03;98537.81;;;26.73;54.39
38530;BME280;24301;54.332;48.386;2022-07-23T03:23:29;98540.69;;;27.32;52.69
38530;BME280;24301;54.332;48.386;2022-07-23T03:25:55;98549.19;;;27.47;51.84
38530;BME280;24301;54.332;48.386;2022-07-23T03:28:22;98546.22;;;27.50;52.00
38530;BME280;24301;54.332;48.386;2022-07-23T03:30:50;98549.38;;;27.45;51.47
38530;BME280;24301;54.332;48.386;2022-07-23T03:33:18;98546.13;;;27.61;50.90
38530;BME280;24301;54.332;48.386;2022-07-23T03:35:46;98555.34;;;27.88;51.02
38530;BME280;24301;54.332;48.386;2022-07-23T03:38:25;98538.28;;;27.88;50.42
38530;BME280;24301;54.332;48.386;2022-07-23T03:40:50;98535.47;;;27.60;50.88
38530;BME280;24301;54.332;48.386;2022-07-23T03:43:17;98557.06;;;27.79;51.00
38530;BME280;24301;54.332;48.386;2022-07-23T03:45:44;98567.84;;;27.99;50.41
38530;BME280;24301;54.332;48.386;2022-07-23T03:48:10;98552.06;;;27.85;50.74
38530;BME280;24301;54.332;48.386;2022-07-23T03:50:36;98546.81;;;27.93;50.87
38530;BME280;24301;54.332;48.386;2022-07-23T03:53:03;98544.13;;;27.83;50.73
38530;BME280;24301;54.332;48.386;2022-07-23T03:55:32;98558.03;;;28.18;49.57
38530;BME280;24301;54.332;48.386;2022-07-23T03:57:58;98546.06;;;28.30;48.84
38530;BME280;24301;54.332;48.386;2022-07-23T04:00:23;98551.06;;;28.25;49.01
38530;BME280;24301;54.332;48.386;2022-07-23T04:02:50;98568.03;;;28.45;49.00
38530;BME280;24301;54.332;48.386;2022-07-23T04:05:17;98555.91;;;28.59;48.20
38530;BME280;24301;54.332;48.386;2022-07-23T04:07:46;98550.41;;;29.35;47.16
38530;BME280;24301;54.332;48.386;2022-07-23T04:10:12;98557.50;;;29.46;46.72
38530;BME280;24301;54.332;48.386;2022-07-23T04:12:38;98562.34;;;29.14;46.82
38530;BME280;24301;54.332;48.386;2022-07-23T04:15:07;98553.56;;;28.84;47.08
38530;BME280;24301;54.332;48.386;2022-07-23T04:17:33;98560.53;;;28.87;47.09
38530;BME280;24301;54.332;48.386;2022-07-23T04:19:59;98565.63;;;29.36;46.47
38530;BME280;24301;54.332;48.386;2022-07-23T04:22:31;98557.78;;;29.79;45.39
38530;BME280;24301;54.332;48.386;2022-07-23T04:24:57;98569.53;;;30.24;44.86
38530;BME280;24301;54.332;48.386;2022-07-23T04:27:23;98553.28;;;30.24;44.24
38530;BME280;24301;54.332;48.386;2022-07-23T04:29:48;98573.16;;;30.15;44.53
38530;BME280;24301;54.332;48.386;2022-07-23T04:32:14;98576.00;;;30.31;44.28
38530;BME280;24301;54.332;48.386;2022-07-23T04:34:40;98570.38;;;30.51;44.48
38530;BME280;24301;54.332;48.386;2022-07-23T04:37:25;98572.38;;;30.75;43.48
38530;BME280;24301;54.332;48.386;2022-07-23T04:39:51;98553.00;;;31.05;42.81
38530;BME280;24301;54.332;48.386;2022-07-23T04:42:17;98563.78;;;31.31;42.05
38530;BME280;24301;54.332;48.386;2022-07-23T04:44:43;98564.13;;;30.93;42.91
38530;BME280;24301;54.332;48.386;2022-07-23T04:47:09;98556.41;;;31.15;42.96
38530;BME280;24301;54.332;48.386;2022-07-23T04:49:36;98566.44;;;31.15;42.58
38530;BME280;24301;54.332;48.386;2022-07-23T04:52:02;98578.69;;;30.84;42.95
38530;BME280;24301;54.332;48.386;2022-07-23T04:54:29;98566.78;;;30.77;43.02
38530;BME280;24301;54.332;48.386;2022-07-23T04:56:54;98565.00;;;31.37;41.90
38530;BME280;24301;54.332;48.386;2022-07-23T04:59:21;98560.63;;;31.52;41.20
38530;BME280;24301;54.332;48.386;2022-07-23T05:02:07;98566.50;;;30.88;41.96
38530;BME280;24301;54.332;48.386;2022-07-23T05:04:33;98575.94;;;30.76;42.46
38530;BME280;24301;54.332;48.386;2022-07-23T05:06:59;98566.78;;;31.11;41.33
38530;BME280;24301;54.332;48.386;2022-07-23T05:09:25;98573.47;;;31.34;41.25
38530;BME280;24301;54.332;48.386;2022-07-23T05:11:51;98594.06;;;31.18;40.57
38530;BME280;24301;54.332;48.386;2022-07-23T05:14:17;98570.13;;;31.57;40.00
38530;BME280;24301;54.332;48.386;2022-07-23T05:16:44;98577.59;;;31.71;39.21
38530;BME280;24301;54.332;48.386;2022-07-23T05:19:16;98579.69;;;32.02;38.76
38530;BME280;24301;54.332;48.386;2022-07-23T05:21:42;98572.03;;;31.98;38.50
38530;BME280;24301;54.332;48.386;2022-07-23T05:24:08;98588.22;;;32.89;36.92
38530;BME280;24301;54.332;48.386;2022-07-23T05:26:34;98579.66;;;32.52;36.95
38530;BME280;24301;54.332;48.386;2022-07-23T05:29:00;98576.50;;;32.80;36.44
38530;BME280;24301;54.332;48.386;2022-07-23T05:31:26;98581.81;;;33.13;36.07
38530;BME280;24301;54.332;48.386;2022-07-23T05:33:52;98583.91;;;33.43;35.33
38530;BME280;24301;54.332;48.386;2022-07-23T05:36:18;98578.28;;;33.67;35.21
38530;BME280;24301;54.332;48.386;2022-07-23T05:38:55;98575.06;;;34.10;34.89
38530;BME280;24301;54.332;48.386;2022-07-23T05:41:22;98579.28;;;33.98;34.18
38530;BME280;24301;54.332;48.386;2022-07-23T05:43:48;98574.03;;;34.12;34.21
38530;BME280;24301;54.332;48.386;2022-07-23T05:46:14;98585.25;;;34.55;34.14
38530;BME280;24301;54.332;48.386;2022-07-23T05:48:41;98582.53;;;34.47;33.90
38530;BME280;24301;54.332;48.386;2022-07-23T05:51:30;98577.06;;;35.00;33.58
38530;BME280;24301;54.332;48.386;2022-07-23T05:53:56;98567.19;;;34.16;34.09
38530;BME280;24301;54.332;48.386;2022-07-23T05:56:26;98570.06;;;34.37;34.44
38530;BME280;24301;54.332;48.386;2022-07-23T05:58:55;98579.34;;;34.28;33.86
38530;BME280;24301;54.332;48.386;2022-07-23T06:01:23;98581.56;;;34.93;33.16
38530;BME280;24301;54.332;48.386;2022-07-23T06:04:00;98581.19;;;34.81;32.66
38530;BME280;24301;54.332;48.386;2022-07-23T06:06:32;98576.78;;;34.50;32.87
38530;BME280;24301;54.332;48.386;2022-07-23T06:09:01;98579.63;;;35.02;31.04
38530;BME280;24301;54.332;48.386;2022-07-23T06:11:27;98582.41;;;35.45;31.65
38530;BME280;24301;54.332;48.386;2022-07-23T06:13:53;98582.56;;;35.22;32.09
38530;BME280;24301;54.332;48.386;2022-07-23T06:16:22;98579.34;;;35.70;31.22
38530;BME280;24301;54.332;48.386;2022-07-23T06:18:51;98586.38;;;35.43;30.73
38530;BME280;24301;54.332;48.386;2022-07-23T06:21:17;98577.59;;;35.26;30.99
38530;BME280;24301;54.332;48.386;2022-07-23T06:23:42;98588.25;;;35.57;30.79
38530;BME280;24301;54.332;48.386;2022-07-23T06:26:08;98577.50;;;35.99;29.90
38530;BME280;24301;54.332;48.386;2022-07-23T06:28:40;98589.03;;;36.45;29.87
38530;BME280;24301;54.332;48.386;2022-07-23T06:31:06;98572.66;;;36.23;29.52
38530;BME280;24301;54.332;48.386;2022-07-23T06:33:33;98573.63;;;36.08;28.94
38530;BME280;24301;54.332;48.386;2022-07-23T06:35:59;98572.25;;;35.54;29.48
38530;BME280;24301;54.332;48.386;2022-07-23T06:38:25;98576.16;;;35.66;30.33
38530;BME280;24301;54.332;48.386;2022-07-23T06:40:51;98584.53;;;35.87;29.54
38530;BME280;24301;54.332;48.386;2022-07-23T06:43:17;98587.69;;;36.34;28.85
38530;BME280;24301;54.332;48.386;2022-07-23T06:45:44;98574.72;;;36.43;28.28
38530;BME280;24301;54.332;48.386;2022-07-23T06:48:10;98574.97;;;35.98;27.99
38530;BME280;24301;54.332;48.386;2022-07-23T06:50:36;98583.38;;;35.52;28.99
38530;BME280;24301;54.332;48.386;2022-07-23T06:53:02;98564.88;;;35.98;28.99
38530;BME280;24301;54.332;48.386;2022-07-23T06:55:28;98580.38;;;35.91;29.22
38530;BME280;24301;54.332;48.386;2022-07-23T06:57:54;98585.19;;;35.67;29.41
38530;BME280;24301;54.332;48.386;2022-07-23T07:00:20;98577.25;;;35.72;28.95
38530;BME280;24301;54.332;48.386;2022-07-23T07:02:46;98578.13;;;35.73;28.51
38530;BME280;24301;54.332;48.386;2022-07-23T07:05:12;98580.91;;;35.79;28.83
38530;BME280;24301;54.332;48.386;2022-07-23T07:07:38;98578.94;;;36.45;28.06
38530;BME280;24301;54.332;48.386;2022-07-23T07:10:04;98577.91;;;36.18;27.59
38530;BME280;24301;54.332;48.386;2022-07-23T07:12:30;98578.69;;;36.69;26.54
38530;BME280;24301;54.332;48.386;2022-07-23T07:14:56;98580.22;;;37.20;26.25
38530;BME280;24301;54.332;48.386;2022-07-23T07:17:23;98585.56;;;37.00;25.71
38530;BME280;24301;54.332;48.386;2022-07-23T07:19:49;98578.94;;;37.09;26.07
38530;BME280;24301;54.332;48.386;2022-07-23T07:22:14;98584.19;;;37.10;26.08
38530;BME280;24301;54.332;48.386;2022-07-23T07:24:40;98598.31;;;37.14;24.49
38530;BME280;24301;54.332;48.386;2022-07-23T07:27:06;98576.44;;;36.22;25.84
38530;BME280;24301;54.332;48.386;2022-07-23T07:29:32;98571.88;;;36.58;26.43
38530;BME280;24301;54.332;48.386;2022-07-23T07:31:58;98577.00;;;36.67;25.87
38530;BME280;24301;54.332;48.386;2022-07-23T07:34:24;98576.41;;;36.44;25.82
38530;BME280;24301;54.332;48.386;2022-07-23T07:36:50;98572.72;;;36.01;25.97
38530;BME280;24301;54.332;48.386;2022-07-23T07:39:16;98575.84;;;35.76;26.04
38530;BME280;24301;54.332;48.386;2022-07-23T07:41:42;98570.50;;;35.68;26.05
38530;BME280;24301;54.332;48.386;2022-07-23T07:44:08;98565.81;;;35.84;26.20
38530;BME280;24301;54.332;48.386;2022-07-23T07:46:34;98572.63;;;35.14;26.82
38530;BME280;24301;54.332;48.386;2022-07-23T07:48:59;98586.94;;;34.86;27.68
38530;BME280;24301;54.332;48.386;2022-07-23T07:51:26;98571.38;;;33.80;28.15
38530;BME280;24301;54.332;48.386;2022-07-23T07:53:52;98569.56;;;33.49;28.50
38530;BME280;24301;54.332;48.386;2022-07-23T07:56:18;98565.09;;;33.24;28.71
38530;BME280;24301;54.332;48.386;2022-07-23T07:58:44;98559.41;;;33.43;28.63
38530;BME280;24301;54.332;48.386;2022-07-23T08:01:10;98564.00;;;34.12;28.91
38530;BME280;24301;54.332;48.386;2022-07-23T08:03:36;98570.53;;;34.26;27.68
38530;BME280;24301;54.332;48.386;2022-07-23T08:06:02;98566.69;;;33.50;27.69
38530;BME280;24301;54.332;48.386;2022-07-23T08:08:28;98573.47;;;32.66;29.30
38530;BME280;24301;54.332;48.386;2022-07-23T08:10:54;98568.81;;;31.86;29.56
38530;BME280;24301;54.332;48.386;2022-07-23T08:13:19;98571.47;;;31.52;30.94
38530;BME280;24301;54.332;48.386;2022-07-23T08:15:46;98573.88;;;30.70;31.84
38530;BME280;24301;54.332;48.386;2022-07-23T08:18:12;98577.53;;;29.71;34.54
38530;BME280;24301;54.332;48.386;2022-07-23T08:20:38;98577.34;;;29.08;34.48
38530;BME280;24301;54.332;48.386;2022-07-23T08:23:08;98578.91;;;28.25;35.83
38530;BME280;24301;54.332;48.386;2022-07-23T08:25:39;98582.03;;;27.62;36.24
38530;BME280;24301;54.332;48.386;2022-07-23T08:28:11;98589.13;;;27.02;37.30
38530;BME280;24301;54.332;48.386;2022-07-23T08:30:38;98577.47;;;26.61;38.98
38530;BME280;24301;54.332;48.386;2022-07-23T08:33:07;98581.38;;;26.25;40.43
38530;BME280;24301;54.332;48.386;2022-07-23T08:35:38;98584.38;;;26.11;40.55
38530;BME280;24301;54.332;48.386;2022-07-23T08:38:06;98586.19;;;26.10;40.92
38530;BME280;24301;54.332;48.386;2022-07-23T08:40:35;98585.47;;;26.08;40.56
38530;BME280;24301;54.332;48.386;2022-07-23T08:43:05;98584.91;;;26.05;40.45
38530;BME280;24301;54.332;48.386;2022-07-23T08:45:35;98588.03;;;25.89;40.12
38530;BME280;24301;54.332;48.386;2022-07-23T08:48:02;98586.25;;;25.78;42.34
38530;BME280;24301;54.332;48.386;2022-07-23T08:50:32;98581.38;;;25.72;41.29
38530;BME280;24301;54.332;48.386;2022-07-23T08:52:59;98593.19;;;25.59;40.35
38530;BME280;24301;54.332;48.386;2022-07-23T08:55:26;98591.31;;;25.71;40.11
38530;BME280;24301;54.332;48.386;2022-07-23T08:57:52;98598.56;;;25.92;40.43
38530;BME280;24301;54.332;48.386;2022-07-23T09:00:21;98586.66;;;25.94;40.17
38530;BME280;24301;54.332;48.386;2022-07-23T09:02:47;98588.44;;;26.05;40.90
38530;BME280;24301;54.332;48.386;2022-07-23T09:05:15;98591.13;;;26.17;40.05
38530;BME280;24301;54.332;48.386;2022-07-23T09:10:50;98587.72;;;26.03;39.87
38530;BME280;24301;54.332;48.386;2022-07-23T09:13:31;98590.06;;;25.96;39.48
38530;BME280;24301;54.332;48.386;2022-07-23T09:16:06;98584.13;;;25.93;38.64
38530;BME280;24301;54.332;48.386;2022-07-23T09:19:24;98589.00;;;25.88;39.41
38530;BME280;24301;54.332;48.386;2022-07-23T09:21:36;98590.50;;;25.80;40.06
38530;BME280;24301;54.332;48.386;2022-07-23T09:24:05;98590.25;;;25.83;39.97
38530;BME280;24301;54.332;48.386;2022-07-23T09:26:42;98600.66;;;26.09;39.89
38530;BME280;24301;54.332;48.386;2022-07-23T09:31:58;98587.25;;;25.98;39.75
38530;BME280;24301;54.332;48.386;2022-07-23T09:34:32;98583.84;;;25.96;39.47
38530;BME280;24301;54.332;48.386;2022-07-23T09:37:15;98583.44;;;25.79;39.30
38530;BME280;24301;54.332;48.386;2022-07-23T09:39:43;98581.38;;;25.72;40.13
38530;BME280;24301;54.332;48.386;2022-07-23T09:44:43;98587.38;;;25.75;40.80
38530;BME280;24301;54.332;48.386;2022-07-23T09:47:09;98571.50;;;25.72;41.72
38530;BME280;24301;54.332;48.386;2022-07-23T09:49:35;98582.81;;;25.76;42.25
38530;BME280;24301;54.332;48.386;2022-07-23T09:52:02;98585.13;;;25.80;42.06
38530;BME280;24301;54.332;48.386;2022-07-23T09:54:33;98595.16;;;25.90;42.47
38530;BME280;24301;54.332;48.386;2022-07-23T09:57:09;98590.06;;;25.96;42.46
38530;BME280;24301;54.332;48.386;2022-07-23T09:59:41;98583.84;;;25.96;42.63
38530;BME280;24301;54.332;48.386;2022-07-23T10:02:09;98588.44;;;26.05;42.95
38530;BME280;24301;54.332;48.386;2022-07-23T10:04:53;98582.88;;;25.97;42.80
38530;BME280;24301;54.332;48.386;2022-07-23T10:07:26;98584.38;;;25.90;43.36
38530;BME280;24301;54.332;48.386;2022-07-23T10:09:58;98579.31;;;25.96;43.07
38530;BME280;24301;54.332;48.386;2022-07-23T10:12:57;98582.69;;;26.10;43.37
38530;BME280;24301;54.332;48.386;2022-07-23T10:15:43;98593.06;;;26.15;43.28
38530;BME280;24301;54.332;48.386;2022-07-23T10:18:10;98593.66;;;26.18;43.46
38530;BME280;24301;54.332;48.386;2022-07-23T10:20:38;98591.75;;;26.30;43.74
38530;BME280;24301;54.332;48.386;2022-07-23T10:23:14;98596.59;;;26.36;43.49
38530;BME280;24301;54.332;48.386;2022-07-23T10:25:51;98590.16;;;26.49;43.65
38530;BME280;24301;54.332;48.386;2022-07-23T10:31:40;98596.16;;;26.62;43.36
38530;BME280;24301;54.332;48.386;2022-07-23T10:39:34;98589.06;;;26.30;43.95
38530;BME280;24301;54.332;48.386;2022-07-23T10:42:11;98582.41;;;26.34;43.77
38530;BME280;24301;54.332;48.386;2022-07-23T10:44:42;98581.16;;;26.38;44.01
38530;BME280;24301;54.332;48.386;2022-07-23T10:47:10;98580.78;;;26.43;43.45
38530;BME280;24301;54.332;48.386;2022-07-23T10:49:45;98573.34;;;26.35;43.73
38530;BME280;24301;54.332;48.386;2022-07-23T10:54:45;98579.00;;;26.32;44.20
38530;BME280;24301;54.332;48.386;2022-07-23T10:57:12;98583.84;;;26.38;43.59
38530;BME280;24301;54.332;48.386;2022-07-23T11:02:30;98570.53;;;26.37;43.13
38530;BME280;24301;54.332;48.386;2022-07-23T11:05:17;98575.66;;;26.40;43.49
38530;BME280;24301;54.332;48.386;2022-07-23T11:10:38;98572.53;;;26.35;42.52
38530;BME280;24301;54.332;48.386;2022-07-23T11:13:26;98569.66;;;26.36;42.54
38530;BME280;24301;54.332;48.386;2022-07-23T11:24:05;98565.97;;;26.28;42.74
38530;BME280;24301;54.332;48.386;2022-07-23T11:37:03;98548.84;;;26.38;42.64
38530;BME280;24301;54.332;48.386;2022-07-23T11:39:31;98553.31;;;26.49;42.21
38530;BME280;24301;54.332;48.386;2022-07-23T11:41:58;98559.44;;;26.30;42.04
38530;BME280;24301;54.332;48.386;2022-07-23T11:44:46;98545.81;;;26.22;42.66
38530;BME280;24301;54.332;48.386;2022-07-23T11:47:12;98552.34;;;26.29;42.34
38530;BME280;24301;54.332;48.386;2022-07-23T11:49:38;98549.28;;;26.34;42.50
38530;BME280;24301;54.332;48.386;2022-07-23T11:52:14;98532.53;;;26.30;42.17
38530;BME280;24301;54.332;48.386;2022-07-23T11:57:18;98535.22;;;26.30;42.27
38530;BME280;24301;54.332;48.386;2022-07-23T11:59:46;98541.31;;;26.32;42.28
38530;BME280;24301;54.332;48.386;2022-07-23T12:02:13;98525.59;;;26.28;41.96
38530;BME280;24301;54.332;48.386;2022-07-23T12:04:43;98541.97;;;26.24;42.48
38530;BME280;24301;54.332;48.386;2022-07-23T12:07:33;98531.09;;;26.05;42.42
38530;BME280;24301;54.332;48.386;2022-07-23T12:10:20;98529.50;;;26.02;42.48
38530;BME280;24301;54.332;48.386;2022-07-23T12:12:53;98527.78;;;26.01;42.25
38530;BME280;24301;54.332;48.386;2022-07-23T12:15:28;98528.47;;;26.15;42.57
38530;BME280;24301;54.332;48.386;2022-07-23T12:17:57;98519.88;;;26.21;42.73
38530;BME280;24301;54.332;48.386;2022-07-23T12:20:25;98534.44;;;26.18;42.08
38530;BME280;24301;54.332;48.386;2022-07-23T12:22:56;98517.84;;;25.92;42.19
38530;BME280;24301;54.332;48.386;2022-07-23T12:25:25;98523.06;;;25.93;43.29
38530;BME280;24301;54.332;48.386;2022-07-23T12:28:22;98521.34;;;26.14;43.54
38530;BME280;24301;54.332;48.386;2022-07-23T12:30:54;98525.97;;;26.23;43.44
38530;BME280;24301;54.332;48.386;2022-07-23T12:33:25;98516.63;;;26.27;43.37
38530;BME280;24301;54.332;48.386;2022-07-23T12:35:54;98512.97;;;26.28;43.37
38530;BME280;24301;54.332;48.386;2022-07-23T12:38:22;98506.00;;;26.25;43.47
38530;BME280;24301;54.332;48.386;2022-07-23T12:40:54;98519.63;;;26.13;44.11
38530;BME280;24301;54.332;48.386;2022-07-23T12:43:25;98506.53;;;25.98;43.78
38530;BME280;24301;54.332;48.386;2022-07-23T12:48:29;98500.56;;;25.94;44.75
38530;BME280;24301;54.332;48.386;2022-07-23T12:51:00;98503.41;;;25.93;44.97
38530;BME280;24301;54.332;48.386;2022-07-23T12:53:36;98495.59;;;25.90;44.83
38530;BME280;24301;54.332;48.386;2022-07-23T12:56:15;98490.38;;;25.98;45.11
38530;BME280;24301;54.332;48.386;2022-07-23T12:58:49;98496.16;;;25.93;44.13
38530;BME280;24301;54.332;48.386;2022-07-23T13:04:07;98487.31;;;25.81;45.24
38530;BME280;24301;54.332;48.386;2022-07-23T13:06:35;98486.19;;;25.84;45.29
38530;BME280;24301;54.332;48.386;2022-07-23T13:09:03;98482.38;;;25.87;45.15
38530;BME280;24301;54.332;48.386;2022-07-23T13:11:29;98478.31;;;25.71;45.01
38530;BME280;24301;54.332;48.386;2022-07-23T13:13:56;98467.84;;;25.68;45.54
38530;BME280;24301;54.332;48.386;2022-07-23T13:16:22;98465.88;;;25.70;45.85
38530;BME280;24301;54.332;48.386;2022-07-23T13:18:48;98467.69;;;25.70;45.79
38530;BME280;24301;54.332;48.386;2022-07-23T13:21:14;98452.78;;;25.65;44.72
38530;BME280;24301;54.332;48.386;2022-07-23T13:23:41;98457.66;;;25.50;44.88
38530;BME280;24301;54.332;48.386;2022-07-23T13:26:07;98461.78;;;25.54;45.06
38530;BME280;24301;54.332;48.386;2022-07-23T13:28:33;98454.06;;;25.61;44.88
38530;BME280;24301;54.332;48.386;2022-07-23T13:30:59;98458.44;;;25.62;44.47
38530;BME280;24301;54.332;48.386;2022-07-23T13:33:25;98463.56;;;25.65;44.49
38530;BME280;24301;54.332;48.386;2022-07-23T13:35:52;98457.84;;;25.59;44.42
38530;BME280;24301;54.332;48.386;2022-07-23T13:38:19;98460.69;;;25.57;45.38
38530;BME280;24301;54.332;48.386;2022-07-23T13:40:48;98466.50;;;25.62;44.29
38530;BME280;24301;54.332;48.386;2022-07-23T13:43:17;98475.19;;;25.66;45.59
38530;BME280;24301;54.332;48.386;2022-07-23T13:45:44;98458.78;;;25.69;45.17
38530;BME280;24301;54.332;48.386;2022-07-23T13:48:12;98464.78;;;25.82;44.54